createdAt,value
2022-11-27T00:03:04.461Z,37.86
2022-11-27T00:08:06.428Z,38.40
2022-11-27T00:13:08.310Z,36.46
2022-11-27T00:18:10.252Z,34.37
2022-11-27T00:23:12.096Z,33.25
2022-11-27T00:28:14.155Z,34.08
2022-11-27T00:33:16.128Z,34.93
2022-11-27T00:38:18.085Z,34.45
2022-11-27T00:43:19.995Z,35.37
2022-11-27T00:48:21.961Z,34.85
2022-11-27T00:53:23.901Z,34.01
2022-11-27T00:58:26.984Z,34.38
2022-11-27T01:03:30.069Z,35.37
2022-11-27T01:08:32.868Z,33.57
2022-11-27T01:13:36.544Z,33.48
2022-11-27T01:18:40.055Z,34.57
2022-11-27T01:23:44.000Z,33.07
2022-11-27T01:28:46.688Z,33.01
2022-11-27T01:33:58.106Z,32.19
2022-11-27T01:39:00.971Z,31.47
2022-11-27T01:44:24.480Z,31.54
2022-11-27T01:49:35.851Z,30.76
2022-11-27T01:54:45.735Z,30.92
2022-11-27T01:59:49.312Z,31.54
2022-11-27T02:04:51.287Z,31.99
2022-11-27T02:09:53.252Z,30.89
2022-11-27T02:15:08.124Z,31.61
2022-11-27T02:20:37.651Z,32.01
2022-11-27T02:26:08.175Z,31.11
2022-11-27T02:31:21.871Z,30.01
2022-11-27T02:36:29.954Z,30.51
2022-11-27T02:41:57.817Z,30.22
2022-11-27T02:47:00.440Z,29.61
2022-11-27T02:52:03.859Z,29.65
2022-11-27T02:57:08.067Z,29.79
2022-11-27T03:02:16.989Z,29.90
2022-11-27T03:07:38.630Z,29.99
2022-11-27T03:12:40.659Z,30.16
2022-11-27T03:18:19.498Z,29.44
2022-11-27T03:23:21.384Z,28.93
2022-11-27T03:28:23.732Z,28.93
2022-11-27T03:33:25.929Z,28.87
2022-11-27T03:38:28.219Z,28.82
2022-11-27T03:43:38.502Z,29.39
2022-11-27T03:48:57.336Z,29.58
2022-11-27T03:54:30.404Z,29.12
2022-11-27T03:59:40.704Z,29.34
2022-11-27T04:04:42.790Z,29.02
2022-11-27T04:09:44.866Z,29.10
2022-11-27T04:14:46.669Z,28.99
2022-11-27T04:19:48.780Z,29.01
2022-11-27T04:24:51.055Z,28.79
2022-11-27T04:29:52.994Z,28.22
2022-11-27T04:34:55.030Z,28.23
2022-11-27T04:39:57.027Z,28.44
2022-11-27T04:44:58.882Z,28.31
2022-11-27T04:50:00.794Z,28.32
2022-11-27T04:55:03.255Z,28.11
2022-11-27T05:00:06.020Z,28.00
2022-11-27T05:05:14.547Z,28.13
2022-11-27T05:10:16.522Z,28.00
2022-11-27T05:15:18.519Z,27.67
2022-11-27T05:20:20.458Z,27.42
2022-11-27T05:25:22.472Z,27.20
2022-11-27T05:30:24.329Z,27.22
2022-11-27T05:35:26.531Z,27.29
2022-11-27T05:40:28.476Z,26.66
2022-11-27T05:45:30.676Z,26.66
2022-11-27T05:50:33.650Z,26.92
2022-11-27T05:55:35.640Z,26.56
2022-11-27T06:00:37.596Z,26.94
2022-11-27T06:05:40.497Z,27.63
2022-11-27T06:10:42.419Z,27.25
2022-11-27T06:15:44.551Z,27.13
2022-11-27T06:20:52.787Z,27.03
2022-11-27T06:25:54.908Z,27.63
2022-11-27T06:30:56.724Z,28.08
2022-11-27T06:35:58.817Z,28.69
2022-11-27T06:41:21.409Z,29.39
2022-11-27T06:46:24.547Z,29.10
2022-11-27T06:51:30.752Z,29.99
2022-11-27T06:56:33.007Z,29.42
2022-11-27T07:01:35.278Z,28.78
2022-11-27T07:06:37.632Z,29.32
2022-11-27T07:11:39.998Z,29.96
2022-11-27T07:16:41.997Z,29.87
2022-11-27T07:21:44.134Z,29.53
2022-11-27T07:26:46.110Z,29.66
2022-11-27T07:31:50.544Z,29.45
2022-11-27T07:36:53.451Z,28.42
2022-11-27T07:41:59.887Z,28.10
2022-11-27T07:47:02.211Z,27.65
2022-11-27T07:52:04.267Z,29.09
2022-11-27T07:57:06.446Z,27.95
2022-11-27T08:02:12.727Z,27.58
2022-11-27T08:07:14.686Z,27.73
2022-11-27T08:12:16.621Z,26.42
2022-11-27T08:17:18.684Z,25.64
2022-11-27T08:22:21.767Z,26.17
2022-11-27T08:27:23.643Z,26.47
2022-11-27T08:32:26.027Z,26.17
2022-11-27T08:37:28.100Z,27.03
2022-11-27T08:42:29.991Z,26.54
2022-11-27T08:47:32.543Z,26.27
2022-11-27T08:52:34.480Z,25.50
2022-11-27T08:57:36.517Z,24.69
2022-11-27T09:02:38.363Z,23.63
2022-11-27T09:07:41.447Z,23.67
2022-11-27T09:12:44.583Z,23.66
2022-11-27T09:17:46.504Z,24.29
2022-11-27T09:22:48.392Z,23.86
2022-11-27T09:27:50.319Z,23.95
2022-11-27T09:32:52.302Z,23.25
2022-11-27T09:37:54.357Z,22.08
2022-11-27T09:43:09.767Z,21.67
2022-11-27T09:48:18.879Z,21.37
2022-11-27T09:53:27.033Z,20.34
2022-11-27T09:58:43.510Z,20.59
2022-11-27T10:03:46.500Z,19.47
2022-11-27T10:08:59.471Z,19.09
2022-11-27T10:14:02.712Z,17.80
2022-11-27T10:19:26.631Z,18.58
2022-11-27T10:24:42.154Z,18.89
2022-11-27T10:29:52.210Z,18.73
2022-11-27T10:35:01.342Z,17.70
2022-11-27T10:40:18.208Z,17.35
2022-11-27T10:45:29.269Z,18.54
2022-11-27T10:50:31.206Z,17.44
2022-11-27T10:55:54.411Z,17.41
2022-11-27T11:01:10.934Z,17.27
2022-11-27T11:06:22.640Z,16.83
2022-11-27T11:11:27.008Z,17.18
2022-11-27T11:16:34.889Z,17.48
2022-11-27T11:21:42.573Z,17.59
2022-11-27T11:26:49.247Z,17.38
2022-11-27T11:31:51.396Z,17.41
2022-11-27T11:37:02.068Z,17.81
2022-11-27T11:42:11.039Z,17.96
2022-11-27T11:47:23.148Z,17.97
2022-11-27T11:52:43.661Z,17.81
2022-11-27T11:58:30.002Z,18.38
2022-11-27T12:03:46.105Z,18.86
2022-11-27T12:08:56.697Z,18.59
2022-11-27T12:14:22.767Z,19.76
2022-11-27T12:19:39.168Z,19.41
2022-11-27T12:25:08.906Z,20.88
2022-11-27T12:30:23.671Z,20.76
2022-11-27T12:35:54.851Z,21.08
2022-11-27T12:41:02.941Z,20.07
2022-11-27T12:46:30.175Z,19.68
2022-11-27T12:51:37.825Z,20.02
2022-11-27T12:56:50.591Z,20.56
2022-11-27T13:02:04.468Z,20.29
2022-11-27T13:07:20.442Z,21.08
2022-11-27T13:13:15.850Z,21.21
2022-11-27T13:19:05.756Z,21.74
2022-11-27T13:24:12.758Z,22.01
2022-11-27T13:29:42.973Z,22.46
2022-11-27T13:34:47.287Z,23.39
2022-11-27T13:39:49.284Z,23.30
2022-11-27T13:45:11.233Z,23.69
2022-11-27T13:50:20.025Z,23.89
2022-11-27T13:55:28.127Z,24.43
2022-11-27T14:00:37.237Z,24.84
2022-11-27T14:05:42.419Z,25.29
2022-11-27T14:10:55.635Z,25.01
2022-11-27T14:16:05.138Z,25.36
2022-11-27T14:21:07.132Z,26.07
2022-11-27T14:26:15.864Z,26.44
2022-11-27T14:31:28.824Z,26.65
2022-11-27T14:36:34.505Z,26.62
2022-11-27T14:41:36.652Z,26.90
2022-11-27T14:46:38.745Z,27.92
2022-11-27T14:51:41.184Z,28.48
2022-11-27T14:56:44.955Z,28.08
2022-11-27T15:01:57.394Z,28.06
2022-11-27T15:07:00.127Z,28.32
2022-11-27T15:12:27.747Z,27.82
2022-11-27T15:17:32.651Z,28.68
2022-11-27T15:22:36.813Z,30.60
2022-11-27T15:27:46.768Z,30.64
2022-11-27T15:32:53.241Z,30.69
2022-11-27T15:37:57.312Z,30.46
2022-11-27T15:42:59.419Z,31.84
2022-11-27T15:48:02.408Z,31.89
2022-11-27T15:53:04.563Z,31.74
2022-11-27T15:58:06.500Z,31.54
2022-11-27T16:03:08.395Z,31.67
2022-11-27T16:08:11.295Z,32.41
2022-11-27T16:13:13.217Z,31.86
2022-11-27T16:18:15.351Z,32.15
2022-11-27T16:23:17.304Z,32.14
2022-11-27T16:28:19.247Z,32.38
2022-11-27T16:33:25.107Z,32.49
2022-11-27T16:38:27.485Z,32.44
2022-11-27T16:43:33.443Z,33.38
2022-11-27T16:48:36.644Z,32.96
2022-11-27T16:53:40.991Z,33.56
2022-11-27T16:58:44.839Z,33.69
2022-11-27T17:03:47.153Z,34.71
2022-11-27T17:08:49.442Z,33.74
2022-11-27T17:13:52.835Z,33.97
2022-11-27T17:18:55.156Z,34.15
2022-11-27T17:24:02.908Z,32.51
2022-11-27T17:29:11.136Z,33.02
2022-11-27T17:34:14.904Z,33.63
2022-11-27T17:39:16.943Z,33.82
2022-11-27T17:44:19.205Z,33.86
2022-11-27T17:49:22.153Z,34.13
2022-11-27T17:54:25.603Z,33.12
2022-11-27T17:59:29.102Z,32.03
2022-11-27T18:04:32.349Z,35.16
2022-11-27T18:09:34.231Z,34.37
2022-11-27T18:14:36.358Z,35.55
2022-11-27T18:19:38.362Z,34.72
2022-11-27T18:24:43.064Z,34.90
2022-11-27T18:29:45.473Z,35.98
2022-11-27T18:34:47.574Z,35.66
2022-11-27T18:39:50.600Z,34.98
2022-11-27T18:44:52.561Z,34.90
2022-11-27T18:49:55.852Z,34.07
2022-11-27T18:54:58.077Z,35.43
2022-11-27T19:00:00.016Z,36.35
2022-11-27T19:05:04.227Z,34.83
2022-11-27T19:10:07.257Z,34.93
2022-11-27T19:15:09.678Z,34.59
2022-11-27T19:20:11.897Z,34.46
2022-11-27T19:25:13.813Z,34.31
2022-11-27T19:30:15.908Z,33.41
2022-11-27T19:35:22.115Z,33.96
2022-11-27T19:40:25.803Z,34.66
2022-11-27T19:45:28.065Z,36.37
2022-11-27T19:50:30.678Z,34.67
2022-11-27T19:55:33.408Z,34.37
2022-11-27T20:00:35.704Z,34.87
2022-11-27T20:05:38.948Z,35.81
2022-11-27T20:10:40.915Z,35.54
2022-11-27T20:15:42.893Z,35.95
2022-11-27T20:20:44.846Z,35.15
2022-11-27T20:25:49.464Z,35.99
2022-11-27T20:31:02.976Z,36.35
2022-11-27T20:36:12.052Z,36.05
2022-11-27T20:41:17.810Z,35.47
2022-11-27T20:46:20.025Z,35.11
2022-11-27T20:51:27.460Z,36.11
2022-11-27T20:56:36.031Z,36.58
2022-11-27T21:01:39.514Z,35.25
2022-11-27T21:06:47.951Z,34.86
2022-11-27T21:11:50.114Z,34.59
2022-11-27T21:16:52.364Z,34.14
2022-11-27T21:21:54.513Z,34.37
2022-11-27T21:26:57.052Z,35.53
2022-11-27T21:31:59.459Z,35.44
2022-11-27T21:37:01.560Z,36.67
2022-11-27T21:42:03.743Z,36.73
2022-11-27T21:47:11.760Z,37.12
2022-11-27T21:52:13.792Z,37.05
2022-11-27T21:57:17.487Z,36.54
2022-11-27T22:02:19.615Z,35.76
2022-11-27T22:07:21.665Z,35.44
2022-11-27T22:12:23.548Z,35.91
2022-11-27T22:17:25.803Z,36.16
2022-11-27T22:22:28.931Z,36.30
2022-11-27T22:27:31.061Z,34.93
2022-11-27T22:32:33.912Z,34.07
2022-11-27T22:37:35.867Z,37.57
2022-11-27T22:42:38.156Z,36.17
2022-11-27T22:47:40.095Z,35.72
2022-11-27T22:52:48.127Z,35.70
2022-11-27T22:57:50.211Z,34.62
2022-11-27T23:02:52.123Z,34.80
2022-11-27T23:07:54.596Z,34.89
2022-11-27T23:12:56.538Z,35.42
2022-11-27T23:17:59.183Z,34.85
2022-11-27T23:23:01.200Z,35.38
2022-11-27T23:28:03.912Z,34.96
2022-11-27T23:33:05.831Z,34.92
2022-11-27T23:38:07.761Z,34.78
2022-11-27T23:43:24.543Z,35.08
2022-11-27T23:48:26.435Z,35.47
2022-11-27T23:53:29.078Z,35.37
2022-11-27T23:58:31.447Z,34.86
